createdAt,value
2022-11-02T00:00:53.106Z,95407.66
2022-11-02T00:03:19.743Z,95403.91
2022-11-02T00:05:46.220Z,95404.72
2022-11-02T00:08:12.651Z,95406.03
2022-11-02T00:10:39.056Z,95395.16
2022-11-02T00:13:05.957Z,95391.22
2022-11-02T00:15:35.992Z,95399.34
2022-11-02T00:18:07.773Z,95387.63
2022-11-02T00:20:36.397Z,95394.59
2022-11-02T00:23:03.626Z,95395.19
2022-11-02T00:25:30.354Z,95398.09
2022-11-02T00:27:56.751Z,95393.78
2022-11-02T00:30:23.184Z,95394.81
2022-11-02T00:32:51.035Z,95398.66
2022-11-02T00:35:17.463Z,95407.50
2022-11-02T00:37:43.998Z,95397.88
2022-11-02T00:40:11.281Z,95413.88
2022-11-02T00:42:37.689Z,95413.28
2022-11-02T00:45:05.030Z,95409.59
2022-11-02T00:47:31.467Z,95412.00
2022-11-02T00:49:57.858Z,95413.75
2022-11-02T00:52:24.275Z,95420.09
2022-11-02T00:54:50.679Z,95415.47
2022-11-02T00:57:17.138Z,95423.34
2022-11-02T00:59:43.541Z,95428.06
2022-11-02T01:02:10.166Z,95423.78
2022-11-02T01:04:37.099Z,95432.34
2022-11-02T01:07:04.131Z,95427.94
2022-11-02T01:09:30.719Z,95427.38
2022-11-02T01:11:57.254Z,95422.63
2022-11-02T01:14:23.773Z,95424.03
2022-11-02T01:16:50.260Z,95425.63
2022-11-02T01:19:16.690Z,95430.25
2022-11-02T01:21:43.085Z,95424.25
2022-11-02T01:24:09.633Z,95425.06
2022-11-02T01:26:36.079Z,95423.69
2022-11-02T01:29:02.518Z,95423.69
2022-11-02T01:31:29.000Z,95428.47
2022-11-02T01:33:55.408Z,95423.88
2022-11-02T01:38:54.845Z,95423.78
2022-11-02T01:41:21.768Z,95410.97
2022-11-02T01:43:51.906Z,95417.53
2022-11-02T01:46:40.345Z,95406.94
2022-11-02T01:49:11.257Z,95408.88
2022-11-02T01:52:07.433Z,95402.63
2022-11-02T01:54:52.491Z,95409.38
2022-11-02T01:57:22.026Z,95399.97
2022-11-02T01:59:54.955Z,95399.16
2022-11-02T02:02:24.395Z,95399.28
2022-11-02T02:04:55.567Z,95400.00
2022-11-02T02:07:24.308Z,95392.38
2022-11-02T02:09:51.881Z,95398.38
2022-11-02T02:12:18.988Z,95391.97
2022-11-02T02:14:45.840Z,95395.88
2022-11-02T02:17:24.451Z,95406.72
2022-11-02T02:20:17.528Z,95398.19
2022-11-02T02:23:07.766Z,95405.19
2022-11-02T02:26:02.943Z,95409.84
2022-11-02T02:28:51.339Z,95420.94
2022-11-02T02:31:33.219Z,95416.88
2022-11-02T02:34:22.979Z,95429.50
2022-11-02T02:36:57.871Z,95449.13
2022-11-02T02:39:36.735Z,95430.38
2022-11-02T02:42:22.478Z,95434.91
2022-11-02T02:45:01.093Z,95446.88
2022-11-02T02:47:32.878Z,95440.78
2022-11-02T02:50:07.887Z,95445.28
2022-11-02T02:52:37.639Z,95468.78
2022-11-02T02:55:07.031Z,95461.56
2022-11-02T02:57:35.315Z,95463.22
2022-11-02T03:00:01.801Z,95478.56
2022-11-02T03:02:32.293Z,95491.53
2022-11-02T03:04:58.819Z,95486.66
2022-11-02T03:07:34.774Z,95484.81
2022-11-02T03:10:20.980Z,95490.75
2022-11-02T03:13:04.111Z,95488.91
2022-11-02T03:15:50.234Z,95484.50
2022-11-02T03:18:27.504Z,95484.00
2022-11-02T03:21:19.333Z,95485.22
2022-11-02T03:23:55.234Z,95490.66
2022-11-02T03:26:40.302Z,95491.75
2022-11-02T03:29:15.574Z,95480.34
2022-11-02T03:31:50.831Z,95483.69
2022-11-02T03:34:39.292Z,95489.84
2022-11-02T03:37:14.831Z,95495.19
2022-11-02T03:39:46.462Z,95490.84
2022-11-02T03:42:18.842Z,95490.53
2022-11-02T03:44:47.819Z,95503.00
2022-11-02T03:47:16.870Z,95498.75
2022-11-02T03:49:45.779Z,95501.19
2022-11-02T03:52:18.296Z,95501.66
2022-11-02T03:54:53.366Z,95513.66
2022-11-02T03:57:25.413Z,95518.81
2022-11-02T03:59:51.781Z,95529.66
2022-11-02T04:02:19.665Z,95519.28
2022-11-02T04:04:50.880Z,95533.41
2022-11-02T04:07:23.516Z,95533.31
2022-11-02T04:09:49.898Z,95529.41
2022-11-02T04:12:35.054Z,95535.50
2022-11-02T04:15:01.695Z,95541.97
2022-11-02T04:17:47.028Z,95540.50
2022-11-02T04:20:13.616Z,95536.22
2022-11-02T04:22:58.726Z,95535.72
2022-11-02T04:25:25.222Z,95544.50
2022-11-02T04:27:52.865Z,95538.44
2022-11-02T04:30:21.574Z,95547.19
2022-11-02T04:33:09.051Z,95538.44
2022-11-02T04:35:37.465Z,95534.59
2022-11-02T04:38:22.786Z,95539.69
2022-11-02T04:41:09.198Z,95531.66
2022-11-02T04:43:35.587Z,95532.53
2022-11-02T04:46:01.994Z,95530.72
2022-11-02T04:48:28.394Z,95531.66
2022-11-02T04:50:54.802Z,95533.44
2022-11-02T04:53:21.215Z,95530.47
2022-11-02T04:55:47.662Z,95525.03
2022-11-02T04:58:14.088Z,95533.34
2022-11-02T05:00:40.533Z,95536.09
2022-11-02T05:03:11.417Z,95521.72
2022-11-02T05:05:39.079Z,95528.03
2022-11-02T05:08:05.812Z,95519.84
2022-11-02T05:10:32.599Z,95524.94
2022-11-02T05:13:00.126Z,95526.78
2022-11-02T05:15:26.677Z,95519.16
2022-11-02T05:17:53.122Z,95521.72
2022-11-02T05:20:19.598Z,95519.13
2022-11-02T05:22:46.006Z,95519.28
2022-11-02T05:25:12.990Z,95520.31
2022-11-02T05:27:39.487Z,95516.03
2022-11-02T05:30:06.934Z,95518.69
2022-11-02T05:32:33.338Z,95514.84
2022-11-02T05:34:59.713Z,95515.81
2022-11-02T05:37:26.159Z,95519.41
2022-11-02T05:39:52.538Z,95516.00
2022-11-02T05:42:18.957Z,95514.00
2022-11-02T05:44:45.397Z,95514.50
2022-11-02T05:47:11.815Z,95505.53
2022-11-02T05:49:38.251Z,95501.09
2022-11-02T05:52:05.012Z,95498.06
2022-11-02T05:54:31.440Z,95500.72
2022-11-02T05:56:57.825Z,95499.25
2022-11-02T05:59:24.248Z,95499.94
2022-11-02T06:01:50.793Z,95505.81
2022-11-02T06:04:17.219Z,95500.66
2022-11-02T06:06:44.036Z,95494.66
2022-11-02T06:09:10.414Z,95491.75
2022-11-02T06:11:36.964Z,95498.53
2022-11-02T06:14:03.762Z,95496.97
2022-11-02T06:16:30.976Z,95497.84
2022-11-02T06:18:57.499Z,95499.91
2022-11-02T06:21:23.941Z,95494.16
2022-11-02T06:23:50.675Z,95510.00
2022-11-02T06:26:17.135Z,95501.00
2022-11-02T06:28:43.549Z,95500.75
2022-11-02T06:31:10.023Z,95503.69
2022-11-02T06:33:36.456Z,95505.97
2022-11-02T06:36:02.963Z,95503.97
2022-11-02T06:38:29.408Z,95506.69
2022-11-02T06:40:57.718Z,95519.66
2022-11-02T06:43:25.348Z,95517.81
2022-11-02T06:45:56.145Z,95522.03
2022-11-02T06:48:23.110Z,95530.44
2022-11-02T06:50:49.537Z,95528.38
2022-11-02T06:53:15.974Z,95529.47
2022-11-02T06:55:42.374Z,95537.84
2022-11-02T06:58:08.795Z,95542.09
2022-11-02T07:00:35.718Z,95535.94
2022-11-02T07:03:07.535Z,95548.94
2022-11-02T07:05:34.849Z,95557.09
2022-11-02T07:08:01.270Z,95563.75
2022-11-02T07:10:28.141Z,95562.25
2022-11-02T07:12:55.937Z,95566.91
2022-11-02T07:15:24.046Z,95574.88
2022-11-02T07:17:50.670Z,95573.56
2022-11-02T07:20:17.707Z,95575.34
2022-11-02T07:22:59.492Z,95581.84
2022-11-02T07:25:28.163Z,95578.97
2022-11-02T07:27:55.016Z,95586.78
2022-11-02T07:30:21.474Z,95589.13
2022-11-02T07:32:48.184Z,95587.22
2022-11-02T07:35:16.581Z,95597.03
2022-11-02T07:37:43.133Z,95597.91
2022-11-02T07:40:11.856Z,95593.28
2022-11-02T07:42:47.201Z,95592.69
2022-11-02T07:45:14.030Z,95585.75
2022-11-02T07:47:45.023Z,95590.97
2022-11-02T07:50:13.641Z,95597.78
2022-11-02T07:52:44.802Z,95591.06
2022-11-02T07:55:12.433Z,95584.34
2022-11-02T07:57:38.922Z,95597.50
2022-11-02T08:00:06.153Z,95594.59
2022-11-02T08:02:32.810Z,95597.50
2022-11-02T08:04:59.252Z,95600.13
2022-11-02T08:07:25.665Z,95606.16
2022-11-02T08:09:52.195Z,95603.16
2022-11-02T08:12:18.662Z,95615.94
2022-11-02T08:14:45.076Z,95621.03
2022-11-02T08:17:12.021Z,95622.56
2022-11-02T08:19:38.413Z,95622.84
2022-11-02T08:22:05.005Z,95620.31
2022-11-02T08:24:31.409Z,95624.97
2022-11-02T08:26:57.814Z,95626.25
2022-11-02T08:29:24.255Z,95626.69
2022-11-02T08:31:50.682Z,95626.94
2022-11-02T08:34:17.067Z,95625.59
2022-11-02T08:36:43.482Z,95628.34
2022-11-02T08:39:13.374Z,95620.69
2022-11-02T08:41:42.718Z,95627.97
2022-11-02T08:44:09.131Z,95625.31
2022-11-02T08:46:35.706Z,95620.63
2022-11-02T08:49:02.375Z,95623.19
2022-11-02T08:51:28.831Z,95617.75
2022-11-02T08:53:55.281Z,95622.84
2022-11-02T08:56:21.699Z,95614.78
2022-11-02T08:58:48.113Z,95622.16
2022-11-02T09:01:14.592Z,95619.59
2022-11-02T09:03:41.112Z,95619.00
2022-11-02T09:06:07.613Z,95626.06
2022-11-02T09:08:34.136Z,95621.94
2022-11-02T09:11:02.800Z,95610.59
2022-11-02T09:13:29.417Z,95623.47
2022-11-02T09:15:57.842Z,95618.16
2022-11-02T09:18:24.313Z,95621.44
2022-11-02T09:20:51.536Z,95624.78
2022-11-02T09:23:20.396Z,95624.38
2022-11-02T09:25:47.562Z,95628.03
2022-11-02T09:28:15.469Z,95629.88
2022-11-02T09:30:42.856Z,95627.81
2022-11-02T09:33:10.186Z,95633.28
2022-11-02T09:35:39.497Z,95633.94
2022-11-02T09:38:06.494Z,95632.00
2022-11-02T09:40:46.247Z,95635.03
2022-11-02T09:43:34.551Z,95647.19
2022-11-02T09:46:08.042Z,95645.66
2022-11-02T09:48:51.024Z,95652.88
2022-11-02T09:51:33.669Z,95649.22
2022-11-02T09:54:14.719Z,95650.38
2022-11-02T09:56:44.983Z,95651.63
2022-11-02T09:59:15.518Z,95657.22
2022-11-02T10:01:49.706Z,95658.84
2022-11-02T10:04:19.071Z,95664.59
2022-11-02T10:06:56.426Z,95655.13
2022-11-02T10:09:39.145Z,95663.00
2022-11-02T10:12:14.199Z,95666.47
2022-11-02T10:14:59.392Z,95664.03
2022-11-02T10:17:29.357Z,95651.91
2022-11-02T10:19:59.633Z,95668.06
2022-11-02T10:22:32.310Z,95666.34
2022-11-02T10:25:04.407Z,95664.03
2022-11-02T10:27:37.565Z,95655.38
2022-11-02T10:30:18.543Z,95656.28
2022-11-02T10:32:49.954Z,95651.44
2022-11-02T10:35:41.253Z,95661.47
2022-11-02T10:38:28.999Z,95654.09
2022-11-02T10:40:58.258Z,95653.38
2022-11-02T10:43:44.482Z,95655.72
2022-11-02T10:46:26.552Z,95654.78
2022-11-02T10:48:52.929Z,95654.31
2022-11-02T10:51:21.391Z,95647.94
2022-11-02T10:53:50.989Z,95652.22
2022-11-02T10:56:31.566Z,95648.88
2022-11-02T10:59:18.751Z,95640.88
2022-11-02T11:01:58.963Z,95636.63
2022-11-02T11:04:27.682Z,95645.53
2022-11-02T11:06:56.631Z,95639.50
2022-11-02T11:09:25.942Z,95641.81
2022-11-02T11:11:55.794Z,95641.00
2022-11-02T11:20:28.226Z,95641.88
2022-11-02T11:23:10.337Z,95636.56
2022-11-02T11:25:36.839Z,95637.84
2022-11-02T11:28:22.200Z,95634.44
2022-11-02T11:31:01.993Z,95630.41
2022-11-02T11:33:30.240Z,95636.31
2022-11-02T11:35:56.682Z,95637.28
2022-11-02T11:38:27.123Z,95633.28
2022-11-02T11:40:59.446Z,95628.56
2022-11-02T11:43:37.319Z,95634.63
2022-11-02T11:46:07.395Z,95634.63
2022-11-02T11:48:50.613Z,95630.13
2022-11-02T11:51:26.676Z,95630.53
2022-11-02T11:54:15.425Z,95635.31
2022-11-02T11:56:41.965Z,95622.19
2022-11-02T11:59:24.423Z,95628.97
2022-11-02T12:02:00.302Z,95627.28
2022-11-02T12:04:33.019Z,95615.22
2022-11-02T12:07:24.095Z,95624.94
2022-11-02T12:10:05.990Z,95619.66
2022-11-02T12:12:44.268Z,95620.25
2022-11-02T12:15:37.738Z,95616.22
2022-11-02T12:18:31.083Z,95608.16
2022-11-02T12:21:21.194Z,95607.59
2022-11-02T12:23:47.609Z,95614.41
2022-11-02T12:26:41.671Z,95609.44
2022-11-02T12:29:49.282Z,95609.31
2022-11-02T12:32:40.430Z,95600.16
2022-11-02T12:35:31.551Z,95597.88
2022-11-02T12:38:07.545Z,95599.50
2022-11-02T12:41:02.323Z,95602.31
2022-11-02T12:43:40.695Z,95596.34
2022-11-02T12:46:20.242Z,95598.19
2022-11-02T12:48:57.098Z,95603.13
2022-11-02T12:51:29.807Z,95605.94
2022-11-02T12:54:04.967Z,95597.28
2022-11-02T12:56:39.235Z,95597.88
2022-11-02T12:59:06.596Z,95594.59
2022-11-02T13:01:40.821Z,95588.72
2022-11-02T13:04:23.286Z,95593.34
2022-11-02T13:07:09.488Z,95583.72
2022-11-02T13:09:51.359Z,95581.53
2022-11-02T13:12:21.903Z,95572.34
2022-11-02T13:14:51.726Z,95583.53
2022-11-02T13:17:33.389Z,95583.44
2022-11-02T13:20:14.472Z,95584.81
2022-11-02T13:22:43.902Z,95574.41
2022-11-02T13:25:39.247Z,95574.13
2022-11-02T13:28:14.304Z,95573.31
2022-11-02T13:30:42.819Z,95569.75
2022-11-02T13:33:26.391Z,95570.09
2022-11-02T13:35:54.209Z,95563.41
2022-11-02T13:38:34.584Z,95572.16
2022-11-02T13:41:25.548Z,95567.91
2022-11-02T13:44:33.962Z,95571.59
2022-11-02T13:47:11.703Z,95566.69
2022-11-02T13:49:42.641Z,95563.91
2022-11-02T13:52:22.602Z,95556.75
2022-11-02T13:54:53.449Z,95557.78
2022-11-02T13:57:46.470Z,95562.06
2022-11-02T14:00:24.763Z,95558.81
2022-11-02T14:03:00.821Z,95550.03
2022-11-02T14:05:31.003Z,95551.97
2022-11-02T14:08:05.379Z,95547.22
2022-11-02T14:10:38.436Z,95545.59
2022-11-02T14:13:05.729Z,95539.81
2022-11-02T14:15:32.322Z,95543.56
2022-11-02T14:18:12.041Z,95539.06
2022-11-02T14:20:39.669Z,95534.91
2022-11-02T14:23:09.149Z,95529.13
2022-11-02T14:25:55.413Z,95536.47
2022-11-02T14:28:25.687Z,95547.88
2022-11-02T14:31:02.103Z,95535.53
2022-11-02T14:33:31.571Z,95547.78
2022-11-02T14:36:06.471Z,95539.59
2022-11-02T14:38:51.783Z,95542.28
2022-11-02T14:42:12.432Z,95535.31
2022-11-02T14:45:01.964Z,95533.34
2022-11-02T14:47:30.365Z,95535.56
2022-11-02T14:50:06.754Z,95533.34
2022-11-02T14:52:35.398Z,95543.19
2022-11-02T14:55:06.982Z,95534.84
2022-11-02T14:57:40.612Z,95537.28
2022-11-02T15:00:25.054Z,95531.84
2022-11-02T15:02:55.087Z,95538.84
2022-11-02T15:05:31.831Z,95531.56
2022-11-02T15:08:16.537Z,95528.84
2022-11-02T15:10:45.797Z,95527.88
2022-11-02T15:13:21.388Z,95526.38
2022-11-02T15:15:50.622Z,95517.25
2022-11-02T15:18:29.287Z,95515.16
2022-11-02T15:21:11.178Z,95511.13
2022-11-02T15:23:48.984Z,95512.97
2022-11-02T15:26:42.279Z,95516.56
2022-11-02T15:29:30.864Z,95512.66
2022-11-02T15:31:58.497Z,95508.47
2022-11-02T15:34:40.727Z,95509.63
2022-11-02T15:37:08.705Z,95511.84
2022-11-02T15:39:35.574Z,95518.63
2022-11-02T15:42:18.015Z,95515.97
2022-11-02T15:45:14.253Z,95510.25
2022-11-02T15:48:20.809Z,95506.16
2022-11-02T15:51:12.041Z,95505.94
2022-11-02T15:53:53.705Z,95497.38
2022-11-02T15:56:39.159Z,95495.75
2022-11-02T15:59:16.891Z,95489.88
2022-11-02T16:01:43.655Z,95483.75
2022-11-02T16:04:20.139Z,95483.16
2022-11-02T16:06:46.760Z,95485.59
2022-11-02T16:09:28.409Z,95488.03
2022-11-02T16:12:19.103Z,95482.34
2022-11-02T16:15:09.455Z,95483.97
2022-11-02T16:17:35.962Z,95480.28
2022-11-02T16:20:28.427Z,95485.59
2022-11-02T16:22:59.558Z,95492.97
2022-11-02T16:25:49.039Z,95494.59
2022-11-02T16:28:20.796Z,95494.59
2022-11-02T16:31:18.085Z,95500.25
2022-11-02T16:33:53.977Z,95502.09
2022-11-02T16:36:24.653Z,95511.03
2022-11-02T16:39:20.979Z,95509.78
2022-11-02T16:41:50.677Z,95506.84
2022-11-02T16:44:24.931Z,95511.47
2022-11-02T16:47:09.421Z,95503.72
2022-11-02T16:49:56.376Z,95507.75
2022-11-02T16:52:31.400Z,95507.75
2022-11-02T16:54:57.986Z,95502.44
2022-11-02T16:57:37.086Z,95500.84
2022-11-02T17:00:05.358Z,95502.44
2022-11-02T17:08:05.595Z,95507.19
2022-11-02T17:10:34.465Z,95499.22
2022-11-02T17:13:02.949Z,95502.91
2022-11-02T17:15:32.285Z,95511.47
2022-11-02T17:18:08.265Z,95503.41
2022-11-02T17:20:36.890Z,95511.88
2022-11-02T17:23:06.119Z,95515.25
2022-11-02T17:25:32.558Z,95499.19
2022-11-02T17:28:01.215Z,95514.00
2022-11-02T17:30:27.576Z,95510.97
2022-11-02T17:32:54.094Z,95509.38
2022-11-02T17:35:26.015Z,95514.81
2022-11-02T17:37:53.664Z,95504.84
2022-11-02T17:40:20.351Z,95512.94
2022-11-02T17:42:58.907Z,95505.56
2022-11-02T17:45:37.183Z,95504.19
2022-11-02T17:48:05.635Z,95505.09
2022-11-02T17:50:35.324Z,95508.78
2022-11-02T17:53:03.043Z,95492.34
2022-11-02T17:55:32.526Z,95506.47
2022-11-02T17:57:59.479Z,95514.81
2022-11-02T18:00:27.795Z,95512.47
2022-11-02T18:02:56.610Z,95513.50
2022-11-02T18:05:26.007Z,95513.41
2022-11-02T18:07:53.038Z,95507.16
2022-11-02T18:10:21.606Z,95509.69
2022-11-02T18:12:48.114Z,95513.75
2022-11-02T18:15:21.583Z,95504.38
2022-11-02T18:17:48.334Z,95502.75
2022-11-02T18:20:15.549Z,95499.75
2022-11-02T18:22:42.117Z,95497.31
2022-11-02T18:25:17.118Z,95501.16
2022-11-02T18:27:44.499Z,95512.94
2022-11-02T18:30:13.914Z,95501.59
2022-11-02T18:32:42.251Z,95489.81
2022-11-02T18:35:12.179Z,95487.16
2022-11-02T18:37:39.415Z,95483.69
2022-11-02T18:40:07.727Z,95471.59
2022-11-02T18:42:38.791Z,95477.47
2022-11-02T18:45:05.967Z,95457.81
2022-11-02T18:47:32.795Z,95462.56
2022-11-02T18:50:00.655Z,95455.28
2022-11-02T18:52:32.099Z,95463.50
2022-11-02T18:55:05.335Z,95462.69
2022-11-02T18:57:32.643Z,95455.03
2022-11-02T18:59:59.827Z,95445.84
2022-11-02T19:02:26.386Z,95446.81
2022-11-02T19:04:52.903Z,95441.53
2022-11-02T19:07:38.149Z,95440.50
2022-11-02T19:10:05.023Z,95420.50
2022-11-02T19:12:31.585Z,95429.63
2022-11-02T19:14:58.540Z,95423.41
2022-11-02T19:17:26.187Z,95431.47
2022-11-02T19:19:53.110Z,95419.47
2022-11-02T19:22:24.986Z,95416.59
2022-11-02T19:24:51.558Z,95407.25
2022-11-02T19:27:25.134Z,95414.06
2022-11-02T19:29:52.397Z,95419.69
2022-11-02T19:32:19.645Z,95414.41
2022-11-02T19:34:46.267Z,95416.78
2022-11-02T19:37:13.358Z,95410.69
2022-11-02T19:39:40.125Z,95401.53
2022-11-02T19:42:07.390Z,95406.03
2022-11-02T19:44:38.217Z,95391.03
2022-11-02T19:47:08.681Z,95393.34
2022-11-02T19:49:35.045Z,95384.69
2022-11-02T19:52:01.477Z,95387.22
2022-11-02T19:54:27.877Z,95374.53
2022-11-02T19:56:54.306Z,95376.97
2022-11-02T19:59:20.781Z,95373.59
2022-11-02T20:01:48.287Z,95369.66
2022-11-02T20:04:14.878Z,95357.09
2022-11-02T20:06:43.601Z,95357.13
2022-11-02T20:09:18.766Z,95355.94
2022-11-02T20:11:46.876Z,95348.56
2022-11-02T20:14:15.158Z,95350.16
2022-11-02T20:16:42.066Z,95346.34
2022-11-02T20:19:09.232Z,95349.03
2022-11-02T20:21:41.667Z,95337.84
2022-11-02T20:24:10.575Z,95345.44
2022-11-02T20:26:39.733Z,95361.16
2022-11-02T20:29:07.086Z,95339.38
2022-11-02T20:31:35.950Z,95357.31
2022-11-02T20:34:03.909Z,95351.75
2022-11-02T20:36:30.758Z,95334.31
2022-11-02T20:38:57.349Z,95333.84
2022-11-02T20:41:24.601Z,95340.69
2022-11-02T20:43:53.038Z,95345.31
2022-11-02T20:46:40.001Z,95352.06
2022-11-02T20:49:21.008Z,95330.03
2022-11-02T20:51:52.810Z,95345.41
2022-11-02T20:54:20.197Z,95337.09
2022-11-02T20:56:47.458Z,95325.31
2022-11-02T20:59:14.164Z,95337.91
2022-11-02T21:01:40.753Z,95341.59
2022-11-02T21:04:07.475Z,95329.22
2022-11-02T21:06:33.948Z,95329.97
2022-11-02T21:09:00.837Z,95329.09
2022-11-02T21:11:45.998Z,95327.97
2022-11-02T21:14:12.467Z,95331.53
2022-11-02T21:16:39.012Z,95320.69
2022-11-02T21:19:05.463Z,95315.91
2022-11-02T21:21:31.959Z,95331.97
2022-11-02T21:23:58.452Z,95317.22
2022-11-02T21:26:25.009Z,95325.88
2022-11-02T21:28:51.517Z,95325.16
2022-11-02T21:31:20.471Z,95320.47
2022-11-02T21:33:48.915Z,95333.00
2022-11-02T21:36:16.476Z,95318.84
2022-11-02T21:38:45.077Z,95325.31
2022-11-02T21:41:18.214Z,95319.81
2022-11-02T21:43:44.847Z,95315.91
2022-11-02T21:46:11.471Z,95311.47
2022-11-02T21:48:38.663Z,95313.66
2022-11-02T21:51:10.226Z,95327.56
2022-11-02T21:53:39.162Z,95329.78
2022-11-02T21:56:08.279Z,95333.00
2022-11-02T21:58:35.283Z,95317.44
2022-11-02T22:01:26.509Z,95326.69
2022-11-02T22:03:53.221Z,95324.56
2022-11-02T22:06:21.284Z,95326.69
2022-11-02T22:08:48.317Z,95325.72
2022-11-02T22:11:16.895Z,95322.50
2022-11-02T22:13:43.711Z,95316.97
2022-11-02T22:16:20.533Z,95307.72
2022-11-02T22:18:48.773Z,95309.13
2022-11-02T22:21:16.953Z,95302.69
2022-11-02T22:23:47.393Z,95286.53
2022-11-02T22:26:18.270Z,95297.59
2022-11-02T22:28:45.915Z,95295.50
2022-11-02T22:31:22.402Z,95264.56
2022-11-02T22:33:51.149Z,95283.50
2022-11-02T22:36:20.151Z,95287.19
2022-11-02T22:38:56.115Z,95284.91
2022-11-02T22:41:45.201Z,95286.47
2022-11-02T22:44:13.117Z,95278.75
2022-11-02T22:46:42.195Z,95273.09
2022-11-02T22:49:10.866Z,95253.16
2022-11-02T22:51:45.756Z,95276.31
2022-11-02T22:54:15.539Z,95270.09
2022-11-02T22:56:43.689Z,95265.81
2022-11-02T22:59:10.511Z,95240.81
2022-11-02T23:01:37.948Z,95259.06
2022-11-02T23:04:05.719Z,95268.88
2022-11-02T23:06:33.091Z,95258.28
2022-11-02T23:08:59.875Z,95262.81
2022-11-02T23:11:30.838Z,95260.94
2022-11-02T23:14:02.827Z,95270.47
2022-11-02T23:16:37.919Z,95257.91
2022-11-02T23:19:27.281Z,95269.16
2022-11-02T23:22:16.199Z,95262.22
2022-11-02T23:25:09.042Z,95263.78
2022-11-02T23:27:59.449Z,95247.75
2022-11-02T23:30:47.427Z,95250.38
2022-11-02T23:33:13.936Z,95236.66
2022-11-02T23:35:59.024Z,95255.63
2022-11-02T23:38:45.747Z,95240.59
2022-11-02T23:41:12.190Z,95242.22
2022-11-02T23:43:38.601Z,95239.06
2022-11-02T23:46:05.234Z,95244.78
2022-11-02T23:48:31.643Z,95242.63
2022-11-02T23:51:17.190Z,95246.97
2022-11-02T23:54:02.087Z,95240.25
2022-11-02T23:56:44.459Z,95229.25
2022-11-02T23:59:14.040Z,95234.88
